Time;durP1;ratioP1;P1;durP2;ratioP2;P2;SDS_P1;SDS_P2;PMS_P1;PMS_P2;Temp;Humidity;BMP_temperature;BMP_pressure;BME280_temperature;BME280_humidity;BME280_pressure;Samples;Min_cycle;Max_cycle;Signal;HPM_P1;HPM_P2
2023/09/09 00:02:22;;;;;;;6.47;6.03;;;32.00;47.90;;;;;;5045496;28;20518;-80
2023/09/09 00:04:54;;;;;;;5.90;5.50;;;32.00;47.90;;;;;;5045513;28;20446;-81
2023/09/09 00:07:22;;;;;;;6.27;5.77;;;32.00;48.00;;;;;;5044534;28;20454;-81
2023/09/09 00:09:50;;;;;;;6.00;5.60;;;31.90;47.90;;;;;;5045323;28;20459;-81
2023/09/09 00:12:19;;;;;;;5.70;5.30;;;31.90;48.00;;;;;;5044843;28;20443;-80
2023/09/09 00:14:49;;;;;;;6.00;5.60;;;31.90;48.10;;;;;;5044594;28;20456;-81
2023/09/09 00:17:17;;;;;;;5.17;4.77;;;31.80;48.10;;;;;;5045130;28;21041;-79
2023/09/09 00:19:45;;;;;;;6.10;5.57;;;31.80;48.20;;;;;;5044579;28;20468;-80
2023/09/09 00:22:14;;;;;;;5.40;5.10;;;31.80;48.20;;;;;;5045709;28;20468;-80
2023/09/09 00:24:42;;;;;;;5.67;5.30;;;31.70;48.20;;;;;;5044921;28;20470;-81
2023/09/09 00:27:10;;;;;;;5.93;5.53;;;31.70;48.20;;;;;;5042087;28;20535;-80
2023/09/09 00:29:38;;;;;;;5.83;5.43;;;31.60;48.30;;;;;;5036836;28;20546;-81
2023/09/09 00:32:08;;;;;;;6.43;5.00;;;31.60;48.20;;;;;;5034096;28;20542;-78
2023/09/09 00:34:36;;;;;;;5.80;5.40;;;31.60;48.40;;;;;;5033944;28;20518;-79
2023/09/09 00:37:05;;;;;;;5.83;5.43;;;31.60;48.30;;;;;;5033644;28;20522;-79
2023/09/09 00:39:33;;;;;;;6.63;5.90;;;31.60;48.50;;;;;;5033864;28;20472;-79
2023/09/09 00:42:02;;;;;;;6.07;5.57;;;31.60;48.60;;;;;;5034322;28;20981;-79
2023/09/09 00:44:31;;;;;;;6.40;5.63;;;31.50;48.60;;;;;;5034591;28;20431;-79
2023/09/09 00:47:00;;;;;;;5.77;5.37;;;31.50;48.50;;;;;;5036642;28;20471;-79
2023/09/09 00:49:29;;;;;;;5.13;4.80;;;31.50;48.60;;;;;;5034576;28;20459;-79
2023/09/09 00:51:57;;;;;;;6.30;5.80;;;31.40;48.70;;;;;;5035673;28;20463;-80
2023/09/09 00:54:25;;;;;;;6.63;5.70;;;31.40;48.70;;;;;;5036136;28;20547;-79
2023/09/09 00:56:55;;;;;;;5.50;5.10;;;31.40;48.70;;;;;;5037789;28;20510;-79
2023/09/09 00:59:23;;;;;;;6.43;5.90;;;31.40;48.80;;;;;;5037179;28;20452;-79
2023/09/09 01:01:51;;;;;;;6.80;6.10;;;31.30;48.70;;;;;;5037041;28;20470;-79
2023/09/09 01:04:19;;;;;;;6.67;6.10;;;31.30;48.70;;;;;;5037636;28;20920;-79
2023/09/09 01:06:49;;;;;;;6.90;6.33;;;31.30;48.80;;;;;;5037951;28;20578;-79
2023/09/09 01:09:17;;;;;;;6.63;6.03;;;31.20;48.80;;;;;;5037059;28;20546;-79
2023/09/09 01:11:45;;;;;;;6.50;6.00;;;31.20;48.90;;;;;;5037065;28;20531;-80
2023/09/09 01:14:13;;;;;;;7.33;6.70;;;31.20;48.90;;;;;;5037105;28;20450;-78
2023/09/09 01:16:42;;;;;;;6.67;6.20;;;31.20;48.90;;;;;;5037589;28;20446;-80
2023/09/09 01:19:10;;;;;;;6.60;6.10;;;31.20;49.50;;;;;;5040535;28;20483;-80
2023/09/09 01:21:38;;;;;;;6.10;5.70;;;31.20;48.90;;;;;;5040562;28;20438;-81
2023/09/09 01:24:08;;;;;;;6.77;6.27;;;31.10;48.90;;;;;;5039144;28;20490;-80
2023/09/09 01:26:37;;;;;;;7.30;6.60;;;31.10;48.90;;;;;;5042125;28;20441;-78
2023/09/09 01:29:05;;;;;;;17.60;15.70;;;31.10;49.00;;;;;;5036003;28;20533;-78
2023/09/09 01:31:33;;;;;;;26.53;22.13;;;31.10;49.10;;;;;;5042126;28;20439;-81
2023/09/09 01:34:01;;;;;;;27.00;22.83;;;31.00;49.20;;;;;;5043523;28;20434;-81
2023/09/09 01:36:29;;;;;;;28.00;22.50;;;31.00;49.10;;;;;;5043965;28;20505;-82
2023/09/09 01:38:57;;;;;;;29.23;23.93;;;31.00;49.20;;;;;;5045424;28;20453;-80
2023/09/09 01:41:27;;;;;;;27.73;23.80;;;31.00;49.20;;;;;;5045614;28;20471;-80
2023/09/09 01:43:54;;;;;;;28.17;24.87;;;31.00;49.30;;;;;;5045899;28;20469;-82
2023/09/09 01:46:22;;;;;;;30.77;25.60;;;30.90;49.30;;;;;;5045385;28;20429;-82
2023/09/09 01:48:50;;;;;;;28.80;24.50;;;30.90;49.30;;;;;;5046222;28;20459;-82
2023/09/09 01:51:19;;;;;;;27.20;23.03;;;30.90;49.40;;;;;;5043811;28;20461;-82
2023/09/09 01:53:46;;;;;;;29.30;24.93;;;30.90;49.40;;;;;;5042291;28;20457;-81
2023/09/09 01:56:15;;;;;;;28.40;24.53;;;30.80;49.40;;;;;;5046193;28;20454;-83
2023/09/09 01:58:44;;;;;;;27.60;23.20;;;30.80;49.40;;;;;;5040683;28;20439;-79
2023/09/09 02:01:12;;;;;;;29.57;23.80;;;30.80;49.50;;;;;;5032257;28;20519;-78
2023/09/09 02:03:40;;;;;;;27.20;23.87;;;30.80;49.40;;;;;;5031559;28;20457;-78
2023/09/09 02:06:09;;;;;;;28.20;24.20;;;30.80;49.50;;;;;;5031619;28;20448;-80
2023/09/09 02:08:37;;;;;;;28.90;23.97;;;30.70;49.50;;;;;;5031707;28;20498;-78
2023/09/09 02:11:06;;;;;;;28.33;24.67;;;30.70;49.60;;;;;;5032380;28;20483;-79
2023/09/09 02:13:34;;;;;;;30.13;24.30;;;30.70;49.50;;;;;;5031688;28;20534;-81
2023/09/09 02:16:07;;;;;;;28.00;24.37;;;30.60;49.60;;;;;;5031302;28;20474;-78
2023/09/09 02:18:37;;;;;;;26.70;23.07;;;30.60;49.60;;;;;;5031563;28;20418;-78
2023/09/09 02:21:06;;;;;;;29.13;23.33;;;30.60;49.70;;;;;;5032644;28;20507;-78
2023/09/09 02:23:34;;;;;;;26.97;22.47;;;30.60;49.70;;;;;;5032271;28;20446;-77
2023/09/09 02:26:03;;;;;;;27.30;22.83;;;30.60;49.80;;;;;;5031986;28;20471;-79
2023/09/09 02:28:31;;;;;;;24.70;21.80;;;30.60;49.70;;;;;;5035086;28;20520;-81
2023/09/09 02:31:00;;;;;;;24.67;21.97;;;30.60;49.70;;;;;;5031266;28;20458;-79
2023/09/09 02:33:29;;;;;;;22.70;20.30;;;30.50;49.70;;;;;;5031067;28;20479;-79
2023/09/09 02:35:59;;;;;;;24.90;21.20;;;30.50;49.70;;;;;;5030909;28;20522;-78
2023/09/09 02:38:27;;;;;;;24.47;20.93;;;30.50;49.70;;;;;;5033699;28;20447;-79
2023/09/09 02:40:57;;;;;;;23.03;20.00;;;30.50;49.80;;;;;;5031313;28;20426;-78
2023/09/09 02:43:24;;;;;;;23.27;19.80;;;30.40;49.80;;;;;;5031140;28;20561;-78
2023/09/09 02:45:52;;;;;;;22.87;20.00;;;30.40;49.90;;;;;;5031127;28;20498;-78
2023/09/09 02:48:20;;;;;;;22.00;19.53;;;30.40;49.90;;;;;;5032413;28;20523;-81
2023/09/09 02:50:49;;;;;;;21.97;18.93;;;30.40;49.80;;;;;;5036376;28;20467;-78
2023/09/09 02:53:18;;;;;;;20.90;18.03;;;30.40;49.90;;;;;;5036682;28;20418;-77
2023/09/09 02:55:46;;;;;;;23.13;19.47;;;30.40;50.00;;;;;;5035477;28;20889;-79
2023/09/09 02:58:14;;;;;;;21.60;18.33;;;30.30;50.00;;;;;;5034920;28;20447;-80
2023/09/09 03:00:42;;;;;;;22.67;18.67;;;30.40;50.10;;;;;;5034895;28;20496;-80
2023/09/09 03:03:11;;;;;;;20.07;17.40;;;30.30;49.90;;;;;;5035536;28;20591;-80
2023/09/09 03:05:39;;;;;;;19.50;16.80;;;30.30;50.00;;;;;;5034964;28;20501;-79
2023/09/09 03:08:09;;;;;;;21.40;17.50;;;30.30;50.00;;;;;;5035073;28;20478;-79
2023/09/09 03:10:37;;;;;;;20.80;17.93;;;30.20;50.00;;;;;;5034683;28;20472;-80
2023/09/09 03:13:06;;;;;;;18.73;16.73;;;30.20;50.00;;;;;;5035039;28;20521;-79
2023/09/09 03:15:33;;;;;;;19.70;17.43;;;30.20;50.00;;;;;;5034548;28;20449;-78
2023/09/09 03:18:02;;;;;;;19.00;16.20;;;30.20;50.00;;;;;;5035102;28;20514;-78
2023/09/09 03:20:30;;;;;;;19.70;17.60;;;30.10;50.20;;;;;;5034665;28;20430;-79
2023/09/09 03:22:59;;;;;;;18.23;16.20;;;30.10;50.10;;;;;;5033439;28;20422;-80
2023/09/09 03:25:28;;;;;;;17.97;15.77;;;30.10;50.30;;;;;;5036972;28;20418;-80
2023/09/09 03:27:56;;;;;;;18.00;15.97;;;30.10;50.10;;;;;;5035923;28;20446;-81
2023/09/09 03:30:24;;;;;;;18.10;16.20;;;30.00;50.20;;;;;;5032752;28;20469;-80
2023/09/09 03:32:51;;;;;;;17.47;15.63;;;30.00;50.30;;;;;;5030772;28;20445;-78
2023/09/09 03:35:20;;;;;;;16.60;14.80;;;30.00;50.30;;;;;;5030881;28;20415;-79
2023/09/09 03:37:48;;;;;;;18.57;16.57;;;30.00;50.30;;;;;;5033371;28;20903;-78
2023/09/09 03:40:16;;;;;;;17.10;15.20;;;30.00;50.30;;;;;;5057361;22;20482;-78
2023/09/09 03:42:45;;;;;;;17.60;14.87;;;30.00;50.40;;;;;;5036567;28;20529;-79
2023/09/09 03:45:14;;;;;;;17.13;15.33;;;30.00;50.40;;;;;;5037028;28;20507;-78
2023/09/09 03:47:42;;;;;;;17.70;15.80;;;30.00;50.50;;;;;;5037499;28;20979;-79
2023/09/09 03:50:10;;;;;;;15.47;13.87;;;30.00;50.40;;;;;;5039413;28;20442;-77
2023/09/09 03:52:38;;;;;;;15.37;13.77;;;29.90;50.50;;;;;;5039188;28;20480;-79
2023/09/09 03:55:06;;;;;;;15.70;14.00;;;29.90;50.30;;;;;;5038836;28;20540;-79
2023/09/09 03:57:34;;;;;;;15.17;13.60;;;29.90;50.50;;;;;;5038487;28;20414;-78
2023/09/09 04:00:05;;;;;;;15.23;13.67;;;29.80;50.30;;;;;;5038003;28;20434;-78
2023/09/09 04:02:33;;;;;;;14.93;13.43;;;29.80;50.50;;;;;;5037831;28;20431;-78
2023/09/09 04:05:01;;;;;;;14.40;12.90;;;29.80;50.60;;;;;;5037157;28;20474;-79
2023/09/09 04:07:33;;;;;;;14.33;12.90;;;29.70;50.60;;;;;;5036654;28;20860;-79
2023/09/09 04:10:01;;;;;;;15.50;13.23;;;29.80;50.60;;;;;;5037664;28;20499;-78
2023/09/09 04:12:29;;;;;;;14.10;12.70;;;29.80;50.50;;;;;;5037789;28;20422;-79
2023/09/09 04:14:58;;;;;;;14.80;13.20;;;29.70;50.60;;;;;;5038056;28;20418;-80
2023/09/09 04:17:27;;;;;;;13.93;12.53;;;29.70;50.50;;;;;;5038058;28;20444;-80
2023/09/09 04:19:56;;;;;;;14.17;12.67;;;29.70;50.70;;;;;;5037869;28;20430;-79
2023/09/09 04:22:25;;;;;;;13.53;12.23;;;29.70;50.70;;;;;;5037860;28;20414;-78
2023/09/09 04:24:54;;;;;;;12.93;11.67;;;29.70;50.70;;;;;;5037605;28;20960;-78
2023/09/09 04:27:22;;;;;;;13.90;12.50;;;29.70;50.70;;;;;;5037224;28;20437;-79
2023/09/09 04:29:51;;;;;;;12.90;11.60;;;29.60;50.60;;;;;;5037642;28;20519;-79
2023/09/09 04:32:19;;;;;;;13.13;11.80;;;29.60;50.70;;;;;;5034795;28;20426;-78
2023/09/09 04:34:48;;;;;;;14.10;12.60;;;29.60;50.60;;;;;;5035704;28;20474;-77
2023/09/09 04:37:16;;;;;;;13.70;12.30;;;29.60;50.80;;;;;;5035849;28;20410;-78
2023/09/09 04:39:44;;;;;;;13.20;11.67;;;29.60;50.80;;;;;;5035190;28;20473;-78
2023/09/09 04:42:12;;;;;;;12.87;11.57;;;29.60;50.70;;;;;;5034907;28;20538;-79
2023/09/09 04:44:40;;;;;;;13.10;11.80;;;29.60;50.70;;;;;;5035010;28;20445;-78
2023/09/09 04:47:08;;;;;;;12.63;11.43;;;29.50;50.70;;;;;;5034463;28;20977;-81
2023/09/09 04:49:36;;;;;;;12.60;11.30;;;29.50;50.70;;;;;;5033743;28;20466;-78
2023/09/09 04:52:06;;;;;;;12.47;11.17;;;29.50;50.80;;;;;;5035326;28;20466;-76
2023/09/09 04:54:34;;;;;;;12.17;10.97;;;29.50;50.80;;;;;;5032801;28;20478;-76
2023/09/09 04:57:04;;;;;;;12.30;11.10;;;29.50;50.80;;;;;;5033407;28;20421;-78
2023/09/09 04:59:33;;;;;;;12.10;10.90;;;29.50;50.80;;;;;;5033093;28;20442;-78
2023/09/09 05:02:01;;;;;;;12.93;11.63;;;29.40;50.90;;;;;;5034634;28;20518;-79
2023/09/09 05:04:29;;;;;;;12.43;11.13;;;29.40;50.80;;;;;;5033284;28;20472;-78
2023/09/09 05:06:58;;;;;;;11.50;10.30;;;29.40;50.80;;;;;;5034063;28;20467;-79
2023/09/09 05:09:27;;;;;;;12.17;10.50;;;29.40;50.90;;;;;;5034001;28;20470;-79
2023/09/09 05:11:56;;;;;;;11.70;10.50;;;29.40;50.90;;;;;;5034527;28;20443;-79
2023/09/09 05:14:24;;;;;;;11.27;10.17;;;29.40;50.90;;;;;;5035325;28;20811;-78
2023/09/09 05:16:52;;;;;;;11.40;10.20;;;29.40;50.80;;;;;;5034637;28;20909;-79
2023/09/09 05:19:22;;;;;;;11.17;9.97;;;29.40;51.00;;;;;;5035024;28;20471;-79
2023/09/09 05:21:50;;;;;;;11.33;10.20;;;29.30;51.00;;;;;;5034836;28;20418;-80
2023/09/09 05:24:18;;;;;;;11.67;10.47;;;29.30;51.00;;;;;;5033570;28;20507;-78
2023/09/09 05:26:47;;;;;;;11.70;10.50;;;29.30;51.00;;;;;;5033700;28;20471;-78
2023/09/09 05:29:15;;;;;;;11.50;10.40;;;29.30;51.00;;;;;;5033895;28;20514;-78
2023/09/09 05:31:43;;;;;;;11.57;10.37;;;29.30;51.00;;;;;;5033160;28;20439;-79
2023/09/09 05:34:11;;;;;;;11.10;10.00;;;29.30;51.10;;;;;;5034048;28;20490;-79
2023/09/09 05:36:39;;;;;;;10.80;9.70;;;29.30;51.20;;;;;;5034073;28;20443;-79
2023/09/09 05:39:07;;;;;;;11.37;10.20;;;29.30;51.20;;;;;;5033935;28;20486;-79
2023/09/09 05:41:35;;;;;;;10.00;9.00;;;29.30;51.10;;;;;;5040376;28;20429;-78
2023/09/09 05:44:05;;;;;;;11.00;9.90;;;29.20;51.70;;;;;;5054694;28;20402;-80
2023/09/09 05:46:35;;;;;;;10.93;9.43;;;29.20;51.00;;;;;;5052793;28;20439;-78
2023/09/09 05:49:04;;;;;;;10.80;9.70;;;29.20;50.90;;;;;;5037708;28;20948;-77
2023/09/09 05:51:32;;;;;;;11.13;9.57;;;29.30;51.10;;;;;;5033063;28;20422;-79
2023/09/09 05:54:01;;;;;;;11.17;9.77;;;29.20;50.90;;;;;;5033638;28;20445;-79
2023/09/09 05:56:29;;;;;;;10.60;9.50;;;29.30;51.10;;;;;;5033261;28;20443;-79
2023/09/09 05:58:58;;;;;;;10.27;9.27;;;29.20;51.00;;;;;;5033554;28;20414;-78
2023/09/09 06:01:27;;;;;;;10.83;9.73;;;29.30;51.00;;;;;;5033088;28;20398;-79
2023/09/09 06:03:55;;;;;;;9.97;9.07;;;29.30;51.10;;;;;;5033779;28;20426;-78
2023/09/09 06:06:23;;;;;;;9.00;8.10;;;29.30;51.20;;;;;;5033420;28;20444;-79
2023/09/09 06:08:51;;;;;;;9.30;8.40;;;29.30;50.90;;;;;;5034018;28;20505;-78
2023/09/09 06:11:19;;;;;;;9.53;8.63;;;29.30;50.90;;;;;;5033443;28;20441;-79
2023/09/09 06:13:47;;;;;;;9.53;8.63;;;29.30;51.10;;;;;;5033302;28;20429;-79
2023/09/09 06:16:15;;;;;;;9.50;8.50;;;29.30;51.00;;;;;;5034420;28;20456;-81
2023/09/09 06:18:45;;;;;;;9.17;8.37;;;29.30;51.10;;;;;;5034122;28;20505;-79
2023/09/09 06:21:12;;;;;;;9.67;8.77;;;29.30;51.00;;;;;;5033262;28;20521;-78
2023/09/09 06:23:40;;;;;;;13.93;8.90;;;29.30;50.90;;;;;;5034202;28;20460;-79
2023/09/09 06:26:08;;;;;;;9.37;8.57;;;29.30;51.00;;;;;;5033959;28;20925;-80
2023/09/09 06:28:36;;;;;;;9.93;9.07;;;29.40;51.00;;;;;;5031498;28;20453;-77
2023/09/09 06:31:05;;;;;;;9.10;8.20;;;29.40;50.80;;;;;;5031501;28;20434;-77
2023/09/09 06:33:32;;;;;;;8.50;7.80;;;29.40;50.90;;;;;;5031453;28;20463;-76
2023/09/09 06:36:02;;;;;;;8.90;8.00;;;29.40;50.80;;;;;;5031674;28;20446;-78
2023/09/09 06:38:30;;;;;;;9.67;8.67;;;29.40;50.50;;;;;;5034250;28;20447;-81
2023/09/09 06:40:58;;;;;;;8.53;7.70;;;29.40;50.40;;;;;;5034304;28;20537;-78
2023/09/09 06:43:26;;;;;;;8.73;7.93;;;29.40;50.60;;;;;;5032842;28;20453;-78
2023/09/09 06:45:55;;;;;;;9.30;8.50;;;29.40;50.60;;;;;;5032578;28;21011;-81
2023/09/09 06:48:23;;;;;;;8.20;7.50;;;29.40;50.40;;;;;;5034037;28;20425;-79
2023/09/09 06:50:52;;;;;;;9.53;8.60;;;29.40;50.90;;;;;;5036396;28;20452;-79
2023/09/09 06:53:22;;;;;;;8.43;7.73;;;29.50;50.60;;;;;;5034578;28;20917;-79
2023/09/09 06:55:50;;;;;;;8.87;8.00;;;29.50;50.60;;;;;;5034885;28;20466;-79
2023/09/09 06:58:18;;;;;;;8.90;8.20;;;29.50;50.30;;;;;;5033989;28;20475;-81
2023/09/09 07:00:50;;;;;;;9.20;8.40;;;29.50;50.70;;;;;;5032511;28;20442;-77
2023/09/09 07:03:18;;;;;;;8.23;7.53;;;29.40;50.60;;;;;;5031705;28;20449;-80
2023/09/09 07:05:46;;;;;;;9.17;8.27;;;29.40;50.60;;;;;;5033056;28;20467;-79
2023/09/09 07:08:14;;;;;;;9.00;8.20;;;29.50;50.60;;;;;;5035588;28;20816;-80
2023/09/09 07:10:50;;;;;;;8.70;7.90;;;29.40;50.60;;;;;;5032484;28;20459;-76
2023/09/09 07:13:18;;;;;;;8.97;8.07;;;29.40;50.60;;;;;;5036902;28;20501;-79
2023/09/09 07:15:47;;;;;;;8.63;7.90;;;29.40;50.60;;;;;;5037329;28;20431;-82
2023/09/09 07:18:14;;;;;;;8.57;7.77;;;29.40;50.80;;;;;;5037618;28;20474;-78
2023/09/09 07:20:46;;;;;;;8.60;7.80;;;29.50;50.40;;;;;;5036023;28;20459;-80
2023/09/09 07:23:14;;;;;;;8.63;7.83;;;29.50;50.50;;;;;;5035544;28;20501;-77
2023/09/09 07:25:43;;;;;;;9.03;8.13;;;29.50;50.60;;;;;;5036181;28;20925;-78
2023/09/09 07:28:12;;;;;;;8.13;7.43;;;29.50;50.60;;;;;;5035512;28;20453;-79
2023/09/09 07:30:41;;;;;;;8.77;7.97;;;29.60;50.60;;;;;;5035672;28;20433;-80
2023/09/09 07:33:09;;;;;;;8.47;7.27;;;29.60;50.50;;;;;;5038696;28;20448;-80
2023/09/09 07:35:38;;;;;;;8.70;7.90;;;29.60;50.40;;;;;;5038635;28;20432;-80
2023/09/09 07:38:10;;;;;;;8.30;7.60;;;29.70;50.60;;;;;;5037476;28;20402;-80
2023/09/09 07:40:39;;;;;;;8.13;7.40;;;29.70;50.30;;;;;;5035215;28;21002;-79
2023/09/09 07:43:07;;;;;;;8.47;7.67;;;29.70;50.30;;;;;;5035096;28;20410;-78
2023/09/09 07:45:36;;;;;;;7.80;7.20;;;29.70;50.30;;;;;;5034760;28;20457;-76
2023/09/09 07:48:06;;;;;;;8.23;7.60;;;29.80;50.40;;;;;;5034702;28;20414;-78
2023/09/09 07:50:33;;;;;;;8.40;7.60;;;29.80;50.20;;;;;;5034350;28;20469;-79
2023/09/09 07:53:02;;;;;;;8.83;8.13;;;29.90;50.30;;;;;;5034502;28;20417;-78
2023/09/09 07:55:30;;;;;;;7.80;7.20;;;30.00;50.30;;;;;;5034712;28;20413;-78
2023/09/09 07:57:59;;;;;;;7.87;7.17;;;30.00;50.10;;;;;;5034495;28;20417;-78
2023/09/09 08:00:27;;;;;;;7.33;6.83;;;30.10;50.10;;;;;;5035109;28;20469;-80
2023/09/09 08:02:56;;;;;;;8.43;7.73;;;30.20;49.90;;;;;;5034484;28;20990;-79
2023/09/09 08:05:24;;;;;;;7.70;7.10;;;30.40;49.80;;;;;;5034226;28;20479;-77
2023/09/09 08:07:52;;;;;;;7.40;6.80;;;30.50;49.50;;;;;;5035291;28;20547;-78
2023/09/09 08:10:23;;;;;;;6.57;6.10;;;30.60;49.30;;;;;;5034712;28;20446;-78
2023/09/09 08:12:51;;;;;;;8.07;7.37;;;30.80;49.20;;;;;;5034583;28;20426;-79
2023/09/09 08:15:21;;;;;;;7.37;6.73;;;30.90;49.00;;;;;;5034974;28;20426;-79
2023/09/09 08:18:09;;;;;;;6.73;6.23;;;31.10;48.90;;;;;;5034150;28;20956;-77
2023/09/09 08:20:47;;;;;;;7.23;6.63;;;31.20;48.70;;;;;;5036631;28;20471;-77
2023/09/09 08:23:16;;;;;;;6.80;6.40;;;31.50;48.60;;;;;;5034658;28;20487;-77
2023/09/09 08:25:45;;;;;;;7.33;6.73;;;31.70;48.30;;;;;;5034490;28;20435;-78
2023/09/09 08:28:14;;;;;;;6.77;6.10;;;31.90;48.20;;;;;;5034433;28;20513;-80
2023/09/09 08:30:47;;;;;;;7.03;6.50;;;32.10;48.00;;;;;;5034562;28;20498;-81
2023/09/09 08:33:22;;;;;;;6.77;6.27;;;32.30;47.70;;;;;;5035045;28;20846;-78
2023/09/09 08:35:52;;;;;;;7.23;6.73;;;32.50;47.50;;;;;;5034451;28;20451;-79
2023/09/09 08:38:24;;;;;;;6.73;6.23;;;32.70;47.30;;;;;;5035301;28;20433;-81
2023/09/09 08:40:55;;;;;;;6.73;6.23;;;32.90;47.30;;;;;;5034001;28;20461;-80
2023/09/09 08:43:29;;;;;;;7.90;5.97;;;33.10;47.00;;;;;;5034587;28;20451;-79
2023/09/09 08:46:03;;;;;;;6.70;6.20;;;33.30;46.80;;;;;;5034100;28;20479;-79
2023/09/09 08:48:35;;;;;;;6.17;5.77;;;33.40;46.60;;;;;;5036106;28;20446;-77
2023/09/09 08:51:04;;;;;;;7.10;6.47;;;33.60;46.40;;;;;;5051893;28;20463;-83
2023/09/09 08:53:34;;;;;;;5.67;5.33;;;33.80;46.20;;;;;;5056841;28;20450;-82
2023/09/09 08:56:04;;;;;;;6.03;5.63;;;33.90;46.00;;;;;;5054391;28;20509;-81
2023/09/09 08:58:33;;;;;;;6.67;6.27;;;34.20;45.80;;;;;;5042033;28;20938;-80
2023/09/09 09:01:02;;;;;;;5.93;5.43;;;34.30;45.60;;;;;;5041096;28;20493;-79
2023/09/09 09:03:35;;;;;;;5.83;5.53;;;34.50;45.50;;;;;;5039703;28;20454;-79
2023/09/09 09:06:06;;;;;;;6.10;5.80;;;34.70;45.40;;;;;;5038029;28;20455;-80
2023/09/09 09:08:36;;;;;;;5.90;5.50;;;34.80;45.10;;;;;;5036674;28;20538;-80
2023/09/09 09:11:05;;;;;;;6.20;5.80;;;35.00;44.90;;;;;;5035343;28;20467;-79
2023/09/09 09:13:35;;;;;;;6.23;5.87;;;35.20;44.90;;;;;;5034451;28;20453;-79
2023/09/09 09:16:05;;;;;;;5.47;5.17;;;35.40;44.60;;;;;;5034316;28;20448;-78
2023/09/09 09:18:38;;;;;;;5.70;5.40;;;35.50;44.40;;;;;;5034083;28;20451;-79
2023/09/09 09:21:08;;;;;;;5.43;5.13;;;35.70;44.30;;;;;;5034427;28;20522;-79
2023/09/09 09:23:44;;;;;;;5.73;5.33;;;35.90;44.10;;;;;;5035645;28;20454;-79
2023/09/09 09:26:25;;;;;;;5.40;5.10;;;36.00;44.00;;;;;;5035791;28;20447;-80
2023/09/09 09:28:55;;;;;;;4.90;4.70;;;36.20;43.80;;;;;;5036397;28;20837;-80
2023/09/09 09:31:24;;;;;;;5.03;4.73;;;36.40;43.60;;;;;;5035556;28;20474;-80
2023/09/09 09:33:54;;;;;;;5.57;5.27;;;36.50;43.40;;;;;;5036006;28;20443;-80
2023/09/09 09:36:23;;;;;;;4.90;4.70;;;36.70;43.10;;;;;;5034930;28;20448;-79
2023/09/09 09:38:54;;;;;;;5.03;4.83;;;36.90;43.00;;;;;;5035285;28;20443;-78
2023/09/09 09:41:29;;;;;;;4.63;4.43;;;37.10;42.90;;;;;;5035107;28;20474;-79
2023/09/09 09:43:57;;;;;;;4.90;4.70;;;37.20;42.70;;;;;;5033444;28;20534;-79
2023/09/09 09:46:26;;;;;;;4.83;4.53;;;37.40;42.60;;;;;;5033047;28;20493;-80
2023/09/09 09:49:02;;;;;;;4.97;4.67;;;37.50;42.40;;;;;;5037143;28;20455;-78
2023/09/09 09:51:42;;;;;;;4.67;4.50;;;37.70;42.30;;;;;;5036740;28;20455;-79
2023/09/09 09:54:11;;;;;;;4.60;4.40;;;37.90;42.10;;;;;;5034430;28;20455;-80
2023/09/09 09:56:39;;;;;;;4.77;4.50;;;38.00;42.00;;;;;;5035870;28;20455;-80
2023/09/09 09:59:07;;;;;;;4.50;4.40;;;38.30;41.80;;;;;;5034747;28;20447;-80
2023/09/09 10:01:36;;;;;;;4.80;4.60;;;38.40;41.60;;;;;;5034768;28;20478;-79
2023/09/09 10:04:06;;;;;;;5.13;4.73;;;38.50;41.40;;;;;;5034625;28;20451;-80
2023/09/09 10:06:35;;;;;;;4.83;4.53;;;38.70;41.30;;;;;;5034833;28;20471;-79
2023/09/09 10:09:10;;;;;;;4.80;4.60;;;38.80;41.10;;;;;;5035754;28;20547;-79
2023/09/09 10:11:41;;;;;;;4.60;4.40;;;39.00;40.90;;;;;;5035133;28;20435;-78
2023/09/09 10:14:11;;;;;;;4.80;4.57;;;39.20;40.70;;;;;;5035170;28;20876;-80
2023/09/09 10:16:39;;;;;;;4.37;4.17;;;39.40;40.60;;;;;;5035652;28;20482;-80
2023/09/09 10:19:08;;;;;;;3.93;3.80;;;39.50;40.40;;;;;;5036380;28;20451;-80
2023/09/09 10:21:37;;;;;;;4.30;4.20;;;39.60;40.20;;;;;;5032690;28;20546;-78
2023/09/09 10:24:09;;;;;;;4.27;4.17;;;39.80;40.10;;;;;;5032452;28;20435;-79
2023/09/09 10:26:38;;;;;;;3.90;3.80;;;39.90;40.00;;;;;;5032552;28;20440;-80
2023/09/09 10:29:06;;;;;;;4.50;4.40;;;40.10;39.80;;;;;;5031953;28;20475;-79
2023/09/09 10:31:35;;;;;;;3.93;3.83;;;40.20;39.70;;;;;;5032282;28;20443;-79
2023/09/09 10:34:03;;;;;;;4.23;4.03;;;40.40;39.50;;;;;;5032348;28;20467;-79
2023/09/09 10:36:33;;;;;;;3.70;3.60;;;40.50;39.40;;;;;;5032450;28;20497;-79
2023/09/09 10:39:14;;;;;;;3.70;3.60;;;40.60;39.30;;;;;;5032608;28;20443;-80
2023/09/09 10:41:42;;;;;;;4.00;3.90;;;40.80;39.10;;;;;;5034822;28;20447;-77
2023/09/09 10:44:10;;;;;;;4.23;4.13;;;40.90;39.00;;;;;;5035890;28;20944;-80
2023/09/09 10:46:38;;;;;;;3.53;3.43;;;41.00;38.80;;;;;;5034781;28;20541;-79
2023/09/09 10:49:06;;;;;;;3.80;3.70;;;41.20;38.70;;;;;;5035545;28;20471;-80
2023/09/09 10:51:56;;;;;;;4.00;3.90;;;41.30;38.60;;;;;;5036809;28;20469;-80
2023/09/09 10:54:25;;;;;;;3.57;3.47;;;41.50;38.50;;;;;;5035692;28;20482;-81
2023/09/09 10:56:57;;;;;;;3.93;3.83;;;41.60;38.30;;;;;;5036082;28;20461;-80
2023/09/09 10:59:27;;;;;;;2.80;2.80;;;41.70;38.10;;;;;;5036000;28;20469;-80
2023/09/09 11:02:09;;;;;;;3.60;3.50;;;41.90;38.00;;;;;;5036355;28;20473;-80
2023/09/09 11:04:37;;;;;;;3.70;3.60;;;42.00;37.90;;;;;;5036451;28;20462;-81
2023/09/09 11:07:13;;;;;;;3.47;3.37;;;42.10;37.70;;;;;;5036149;28;20511;-80
2023/09/09 11:09:50;;;;;;;3.50;3.40;;;42.30;37.50;;;;;;5035959;28;20466;-78
2023/09/09 11:12:25;;;;;;;3.50;3.40;;;42.40;37.50;;;;;;5032992;28;20546;-77
2023/09/09 11:14:58;;;;;;;3.50;3.30;;;42.50;37.40;;;;;;5034730;28;20486;-78
2023/09/09 11:17:28;;;;;;;3.47;3.37;;;42.70;37.20;;;;;;5032715;28;20492;-78
2023/09/09 11:19:55;;;;;;;3.10;3.00;;;42.80;37.10;;;;;;5032866;28;20459;-78
2023/09/09 11:22:27;;;;;;;3.50;3.30;;;42.90;37.00;;;;;;5031653;28;20805;-79
2023/09/09 11:24:57;;;;;;;3.40;3.30;;;43.00;36.70;;;;;;5031340;28;20423;-78
2023/09/09 11:27:26;;;;;;;3.57;3.47;;;43.10;36.70;;;;;;5031043;28;20546;-78
2023/09/09 11:29:54;;;;;;;3.03;2.93;;;43.20;36.60;;;;;;5030682;28;20494;-79
2023/09/09 11:32:26;;;;;;;3.57;3.40;;;43.30;36.50;;;;;;5033131;28;20446;-78
2023/09/09 11:34:54;;;;;;;3.57;3.47;;;43.40;36.40;;;;;;5032991;28;20501;-78
2023/09/09 11:37:24;;;;;;;3.30;3.10;;;43.50;36.30;;;;;;5034015;28;20525;-78
2023/09/09 11:39:57;;;;;;;3.37;2.77;;;43.60;36.30;;;;;;5033473;28;20540;-78
2023/09/09 11:42:26;;;;;;;3.10;3.00;;;43.70;36.10;;;;;;5034509;28;20441;-77
2023/09/09 11:44:54;;;;;;;3.20;3.10;;;43.80;36.00;;;;;;5034265;28;20435;-78
2023/09/09 11:47:22;;;;;;;3.03;2.93;;;43.90;35.80;;;;;;5033621;28;20534;-78
2023/09/09 11:49:51;;;;;;;3.17;3.07;;;44.00;35.70;;;;;;5032724;28;20455;-78
2023/09/09 11:52:19;;;;;;;3.10;3.00;;;44.10;35.60;;;;;;5033455;28;20439;-78
2023/09/09 11:54:49;;;;;;;3.10;3.10;;;44.10;35.60;;;;;;5032783;28;20454;-77
2023/09/09 11:57:19;;;;;;;3.00;2.90;;;44.20;35.40;;;;;;5033394;28;20526;-78
2023/09/09 11:59:48;;;;;;;3.17;3.07;;;44.30;35.30;;;;;;5037156;28;20447;-77
2023/09/09 12:02:20;;;;;;;3.13;3.03;;;44.40;35.30;;;;;;5036351;28;20470;-78
2023/09/09 12:04:55;;;;;;;3.20;3.10;;;44.50;35.00;;;;;;5036994;28;20921;-79
2023/09/09 12:07:24;;;;;;;2.70;2.60;;;44.60;35.10;;;;;;5048381;28;20434;-76
2023/09/09 12:09:52;;;;;;;2.80;2.70;;;44.60;34.80;;;;;;5046652;28;20473;-78
2023/09/09 12:12:22;;;;;;;2.60;2.60;;;44.70;34.80;;;;;;5042678;28;20447;-78
2023/09/09 12:14:50;;;;;;;2.57;2.57;;;44.70;34.70;;;;;;5038023;28;20431;-78
2023/09/09 12:17:18;;;;;;;3.40;3.30;;;44.70;34.40;;;;;;5036789;28;20466;-78
2023/09/09 12:19:54;;;;;;;3.07;3.07;;;44.90;34.50;;;;;;5037218;28;20464;-79
2023/09/09 12:22:31;;;;;;;3.20;3.13;;;44.90;34.40;;;;;;5036996;28;20441;-78
2023/09/09 12:25:04;;;;;;;2.60;2.50;;;44.90;34.20;;;;;;5036703;28;20439;-79
2023/09/09 12:27:43;;;;;;;3.00;2.90;;;45.00;34.30;;;;;;5037082;28;20488;-79
2023/09/09 12:30:35;;;;;;;2.67;2.57;;;45.10;34.20;;;;;;5037678;28;20471;-78
2023/09/09 12:33:07;;;;;;;2.80;2.80;;;45.10;34.10;;;;;;5037017;28;20431;-78
2023/09/09 12:35:35;;;;;;;3.00;2.80;;;45.10;34.10;;;;;;5038463;28;20447;-79
2023/09/09 12:38:03;;;;;;;2.77;2.67;;;45.20;34.00;;;;;;5038434;28;20470;-78
2023/09/09 12:40:47;;;;;;;2.87;2.60;;;45.20;33.80;;;;;;5036862;28;20476;-79
2023/09/09 12:43:17;;;;;;;2.70;2.60;;;45.20;33.80;;;;;;5037504;28;20442;-78
2023/09/09 12:45:49;;;;;;;2.67;2.67;;;45.30;33.80;;;;;;5038152;28;20519;-79
2023/09/09 12:48:17;;;;;;;2.50;2.50;;;45.30;33.70;;;;;;5037166;28;20477;-79
2023/09/09 12:50:45;;;;;;;2.83;2.73;;;45.30;34.30;;;;;;5035931;28;20497;-79
2023/09/09 12:53:13;;;;;;;2.87;2.87;;;45.30;33.70;;;;;;5034592;28;20535;-79